Time;durP1;ratioP1;P1;durP2;ratioP2;P2;SDS_P1;SDS_P2;PMS_P1;PMS_P2;Temp;Humidity;BMP_temperature;BMP_pressure;BME280_temperature;BME280_humidity;BME280_pressure;Samples;Min_cycle;Max_cycle;Signal;HPM_P1;HPM_P2
2023/12/21 00:01:08;;;;;;;0.15;0.15;;;;;;;15.36;74.79;100541.47;5078991;28;20488;-64
2023/12/21 00:03:34;;;;;;;0.20;0.20;;;;;;;15.63;72.99;100545.69;5071129;28;20144;-65
2023/12/21 00:05:59;;;;;;;0.30;0.30;;;;;;;15.52;73.53;100522.34;5068145;28;20097;-66
2023/12/21 00:08:25;;;;;;;0.35;0.35;;;;;;;15.77;72.95;100525.13;5068241;28;20040;-65
2023/12/21 00:10:50;;;;;;;0.20;0.20;;;;;;;15.97;71.43;100516.25;5068724;28;20108;-67
2023/12/21 00:13:15;;;;;;;0.30;0.30;;;;;;;15.95;70.98;100515.69;5068183;28;20131;-66
2023/12/21 00:15:41;;;;;;;0.30;0.30;;;;;;;15.76;71.46;100514.56;5068031;28;20083;-65
2023/12/21 00:18:07;;;;;;;0.30;0.30;;;;;;;15.99;71.38;100510.53;5068375;28;20222;-65
2023/12/21 00:20:32;;;;;;;0.20;0.20;;;;;;;15.83;71.51;100496.16;5070804;28;20040;-66
2023/12/21 00:22:57;;;;;;;0.20;0.20;;;;;;;16.29;70.43;100499.75;5071528;28;20103;-66
2023/12/21 00:25:23;;;;;;;0.30;0.30;;;;;;;16.31;70.38;100492.16;5085552;28;20115;-65
2023/12/21 00:27:48;;;;;;;0.38;0.38;;;;;;;15.67;74.33;100499.91;5092021;28;20111;-65
2023/12/21 00:30:14;;;;;;;0.20;0.20;;;;;;;16.12;72.21;100491.84;5091922;28;20036;-66
2023/12/21 00:32:39;;;;;;;0.28;0.28;;;;;;;15.82;72.44;100494.53;5091871;28;20032;-66
2023/12/21 00:35:05;;;;;;;0.30;0.30;;;;;;;15.00;76.19;100475.50;5091430;28;20036;-65
2023/12/21 00:37:36;;;;;;;0.30;0.30;;;;;;;15.32;75.70;100481.63;5073721;28;20078;-66
2023/12/21 00:40:01;;;;;;;;;;;;;;;15.24;76.33;100465.88;5092197;28;20131;-67
2023/12/21 00:42:26;;;;;;;0.30;0.30;;;;;;;15.38;75.61;100460.78;5092069;28;20552;-66
2023/12/21 00:44:52;;;;;;;0.47;0.47;;;;;;;15.32;75.85;100461.84;5091818;28;20055;-66
2023/12/21 00:47:17;;;;;;;0.25;0.25;;;;;;;15.33;74.90;100466.19;5091444;28;20036;-67
2023/12/21 00:49:43;;;;;;;0.30;0.30;;;;;;;15.84;73.45;100447.09;5092069;28;20502;-65
2023/12/21 00:52:08;;;;;;;0.50;0.50;;;;;;;15.52;75.10;100454.66;5091329;28;20536;-65
2023/12/21 00:54:33;;;;;;;0.40;0.40;;;;;;;16.08;71.85;100439.28;5069123;28;20159;-65
2023/12/21 00:56:59;;;;;;;0.25;0.25;;;;;;;15.45;74.93;100432.41;5071492;28;20502;-64
2023/12/21 00:59:24;;;;;;;0.13;0.13;;;;;;;15.82;74.11;100424.09;5063865;28;20453;-66
2023/12/21 01:01:50;;;;;;;0.10;0.10;;;;;;;15.71;74.41;100414.31;5071573;28;20056;-66
2023/12/21 01:04:15;;;;;;;0.30;0.30;;;;;;;15.72;75.03;100421.38;5071193;28;20579;-66
2023/12/21 01:06:42;;;;;;;0.30;0.30;;;;;;;15.33;74.64;100412.06;5070645;28;20190;-65
2023/12/21 01:09:08;;;;;;;0.40;0.40;;;;;;;15.39;75.48;100392.03;5052834;28;20082;-66
2023/12/21 01:11:33;;;;;;;0.30;0.30;;;;;;;15.79;73.79;100403.75;5071084;28;20036;-67
2023/12/21 01:13:59;;;;;;;0.30;0.30;;;;;;;15.93;72.96;100398.63;5071104;28;20031;-65
2023/12/21 01:16:24;;;;;;;0.30;0.30;;;;;;;15.44;75.16;100405.59;5071225;28;20135;-66
2023/12/21 01:18:49;;;;;;;0.40;0.40;;;;;;;15.76;73.25;100407.00;5070496;28;20043;-67
2023/12/21 01:21:15;;;;;;;0.40;0.40;;;;;;;15.69;74.14;100394.81;5070438;28;20051;-66
2023/12/21 01:23:40;;;;;;;0.32;0.32;;;;;;;15.50;75.24;100382.88;5070782;28;20427;-65
2023/12/21 01:26:05;;;;;;;0.20;0.20;;;;;;;16.13;71.03;100386.97;5070897;28;20476;-66
2023/12/21 01:28:31;;;;;;;0.30;0.30;;;;;;;15.84;71.68;100386.72;5071312;28;20032;-65
2023/12/21 01:30:56;;;;;;;0.30;0.30;;;;;;;16.07;71.99;100369.88;5069715;28;20044;-65
2023/12/21 01:33:22;;;;;;;0.40;0.40;;;;;;;15.59;73.77;100373.94;5070682;28;20037;-65
2023/12/21 01:35:47;;;;;;;0.32;0.32;;;;;;;15.39;74.36;100367.66;5070368;28;20082;-64
2023/12/21 01:38:12;;;;;;;0.30;0.30;;;;;;;15.86;71.79;100364.75;5070412;28;20131;-65
2023/12/21 01:40:38;;;;;;;0.30;0.30;;;;;;;15.54;74.08;100360.41;5071060;28;20135;-64
2023/12/21 01:43:03;;;;;;;0.22;0.22;;;;;;;15.49;73.87;100360.38;5070298;28;20043;-66
2023/12/21 01:45:28;;;;;;;0.20;0.20;;;;;;;15.99;71.88;100358.78;5070587;28;20040;-65
2023/12/21 01:47:55;;;;;;;0.20;0.20;;;;;;;16.10;70.69;100355.78;5070208;28;20029;-65
2023/12/21 01:50:20;;;;;;;0.32;0.32;;;;;;;15.75;72.36;100370.16;5070215;28;20035;-64
2023/12/21 01:52:47;;;;;;;0.30;0.30;;;;;;;15.86;71.84;100364.75;5070194;28;20420;-66
2023/12/21 01:55:14;;;;;;;0.20;0.20;;;;;;;15.71;72.35;100362.84;5070004;28;20451;-66
2023/12/21 01:57:40;;;;;;;0.20;0.20;;;;;;;15.76;71.59;100366.34;5070071;28;20032;-65
2023/12/21 02:00:06;;;;;;;0.30;0.30;;;;;;;15.33;74.64;100356.00;5069617;28;20054;-66
2023/12/21 02:02:32;;;;;;;0.22;0.22;;;;;;;15.84;72.49;100338.72;5070084;28;20039;-65
2023/12/21 02:04:57;;;;;;;0.20;0.20;;;;;;;15.60;73.10;100323.31;5069701;28;20060;-66
2023/12/21 02:07:23;;;;;;;0.20;0.20;;;;;;;16.08;71.04;100308.38;5070052;28;20055;-65
2023/12/21 02:09:48;;;;;;;0.28;0.28;;;;;;;15.54;74.17;100303.53;5069739;28;20037;-66
2023/12/21 02:12:13;;;;;;;0.30;0.30;;;;;;;15.36;73.95;100308.63;5051976;28;20036;-65
2023/12/21 02:14:39;;;;;;;0.25;0.25;;;;;;;14.70;76.55;100304.97;5069390;28;20115;-64
2023/12/21 02:17:15;;;;;;;0.30;0.30;;;;;;;15.70;73.35;100288.88;5069515;28;20091;-67
2023/12/21 02:19:41;;;;;;;0.30;0.30;;;;;;;15.44;73.81;100303.53;5069870;28;20025;-65
2023/12/21 02:22:09;;;;;;;0.10;0.10;;;;;;;15.38;74.81;100309.97;5069385;28;20045;-64
2023/12/21 02:24:34;;;;;;;0.20;0.20;;;;;;;15.79;74.37;100298.09;5069368;28;20039;-65
2023/12/21 02:27:00;;;;;;;0.30;0.30;;;;;;;15.69;74.67;100289.97;5069690;28;20388;-67
2023/12/21 02:29:25;;;;;;;0.20;0.20;;;;;;;14.86;75.94;100301.19;5069613;28;20196;-65
2023/12/21 02:31:51;;;;;;;0.30;0.30;;;;;;;15.07;77.41;100283.13;5051861;28;20027;-66
2023/12/21 02:34:16;;;;;;;0.30;0.30;;;;;;;15.24;76.11;100292.63;5069512;28;20058;-66
2023/12/21 02:36:41;;;;;;;0.30;0.30;;;;;;;15.76;74.25;100285.09;5069312;28;20040;-66
2023/12/21 02:39:07;;;;;;;0.28;0.28;;;;;;;14.94;78.47;100289.88;5051185;28;20049;-67
2023/12/21 02:41:32;;;;;;;0.30;0.30;;;;;;;15.54;76.70;100283.75;5069690;28;20040;-65
2023/12/21 02:43:58;;;;;;;0.30;0.30;;;;;;;15.81;74.70;100286.97;5050693;28;20047;-66
2023/12/21 02:46:24;;;;;;;0.30;0.30;;;;;;;15.34;77.08;100272.88;5069936;28;20070;-65
2023/12/21 02:48:51;;;;;;;0.30;0.30;;;;;;;15.72;74.27;100267.75;5068746;28;20044;-66
2023/12/21 02:51:17;;;;;;;0.20;0.20;;;;;;;14.79;78.82;100268.19;5068969;28;20037;-65
2023/12/21 02:53:42;;;;;;;0.20;0.20;;;;;;;14.99;78.73;100249.31;5069342;28;20033;-65
2023/12/21 02:56:08;;;;;;;0.20;0.20;;;;;;;15.23;77.50;100253.13;5068979;28;20109;-66
2023/12/21 02:58:34;;;;;;;0.20;0.20;;;;;;;15.30;78.28;100245.53;5069128;28;20025;-64
2023/12/21 03:01:01;;;;;;;0.22;0.22;;;;;;;14.96;79.10;100234.41;5068969;28;20125;-65
2023/12/21 03:03:26;;;;;;;0.30;0.30;;;;;;;14.98;78.84;100214.41;5069322;28;20041;-66
2023/12/21 03:05:51;;;;;;;0.30;0.30;;;;;;;14.95;79.82;100203.03;5068928;28;20050;-67
2023/12/21 03:08:17;;;;;;;0.20;0.20;;;;;;;15.26;78.10;100190.31;5051188;28;20388;-65
2023/12/21 03:10:42;;;;;;;0.20;0.20;;;;;;;15.00;79.35;100179.78;5049191;28;20507;-65
2023/12/21 03:13:07;;;;;;;0.40;0.40;;;;;;;14.95;79.56;100173.28;5048930;28;20183;-64
2023/12/21 03:15:33;;;;;;;0.30;0.30;;;;;;;15.29;78.64;100178.16;5065568;28;20094;-65
2023/12/21 03:17:58;;;;;;;0.20;0.20;;;;;;;14.73;81.00;100166.47;5068853;28;20037;-65
2023/12/21 03:20:23;;;;;;;0.25;0.25;;;;;;;14.92;78.78;100168.41;5069023;28;20042;-65
2023/12/21 03:22:49;;;;;;;0.20;0.20;;;;;;;15.06;78.82;100170.56;5068947;28;20028;-65
2023/12/21 03:25:14;;;;;;;0.38;0.38;;;;;;;14.88;80.86;100169.19;5069044;28;20067;-65
2023/12/21 03:27:40;;;;;;;0.30;0.30;;;;;;;14.84;79.62;100151.88;5068884;28;20064;-65
2023/12/21 03:30:07;;;;;;;0.40;0.40;;;;;;;14.78;80.93;100167.28;5068977;28;20472;-66
2023/12/21 03:32:33;;;;;;;0.22;0.22;;;;;;;15.00;80.20;100150.81;5068933;28;20028;-65
2023/12/21 03:34:58;;;;;;;0.20;0.20;;;;;;;14.57;81.01;100154.00;5068731;28;20536;-65
2023/12/21 03:37:27;;;;;;;0.25;0.25;;;;;;;14.82;79.42;100162.97;5068927;28;20035;-66
2023/12/21 03:39:54;;;;;;;0.30;0.30;;;;;;;15.35;77.67;100153.47;5068580;28;20518;-64
2023/12/21 03:42:19;;;;;;;0.35;0.35;;;;;;;15.31;78.23;100138.06;5068683;28;20041;-67
2023/12/21 03:44:45;;;;;;;0.30;0.30;;;;;;;15.88;75.44;100148.53;5068243;28;20385;-65
2023/12/21 03:47:10;;;;;;;0.30;0.30;;;;;;;15.40;76.62;100136.44;5068335;28;20112;-65
2023/12/21 03:49:36;;;;;;;0.35;0.35;;;;;;;15.11;78.26;100128.09;5068919;28;20044;-64
2023/12/21 03:52:01;;;;;;;0.32;0.32;;;;;;;15.41;77.61;100105.56;5068222;28;20036;-66
2023/12/21 03:54:26;;;;;;;0.20;0.20;;;;;;;15.42;77.81;100099.91;5069461;28;20041;-66
2023/12/21 03:56:52;;;;;;;0.35;0.35;;;;;;;14.88;80.13;100112.38;5072562;28;20123;-65
2023/12/21 03:59:18;;;;;;;0.38;0.38;;;;;;;15.10;78.35;100077.75;5072118;28;20071;-66
2023/12/21 04:01:43;;;;;;;0.20;0.20;;;;;;;14.56;80.74;100064.00;5072781;28;20063;-65
2023/12/21 04:04:09;;;;;;;0.30;0.30;;;;;;;14.25;82.53;100032.56;5072186;28;20090;-65
2023/12/21 04:06:34;;;;;;;0.25;0.25;;;;;;;14.76;80.00;100031.50;5071685;28;20041;-66
2023/12/21 04:08:59;;;;;;;0.30;0.30;;;;;;;14.82;79.76;100033.13;5071937;28;20043;-66
2023/12/21 04:11:25;;;;;;;0.47;0.47;;;;;;;14.81;80.24;100031.53;5071968;28;20547;-65
2023/12/21 04:13:50;;;;;;;0.30;0.30;;;;;;;14.71;80.95;100023.41;5072333;28;20032;-65
2023/12/21 04:16:15;;;;;;;0.20;0.20;;;;;;;14.96;78.20;100009.03;5071705;28;20057;-66
2023/12/21 04:18:41;;;;;;;0.30;0.30;;;;;;;14.51;80.59;100012.59;5071711;28;20077;-65
2023/12/21 04:21:07;;;;;;;0.20;0.20;;;;;;;14.77;80.85;100006.09;5071833;28;20127;-66
2023/12/21 04:23:33;;;;;;;0.32;0.32;;;;;;;14.62;80.38;99998.00;5071862;28;20052;-64
2023/12/21 04:25:58;;;;;;;0.30;0.30;;;;;;;14.85;79.31;99974.97;5071791;28;20388;-64
2023/12/21 04:28:23;;;;;;;0.30;0.30;;;;;;;15.04;77.74;99977.88;5072457;28;20142;-64
2023/12/21 04:30:49;;;;;;;0.30;0.30;;;;;;;14.39;81.00;99968.81;5071758;28;20263;-64
2023/12/21 04:33:14;;;;;;;0.30;0.30;;;;;;;14.82;80.44;99959.28;5071822;28;20063;-66
2023/12/21 04:35:39;;;;;;;0.30;0.30;;;;;;;14.94;79.23;99943.56;5071851;28;20123;-65
2023/12/21 04:38:05;;;;;;;0.30;0.30;;;;;;;14.73;80.32;99940.13;5071344;28;20025;-65
2023/12/21 04:40:30;;;;;;;0.20;0.20;;;;;;;14.89;78.91;99935.47;5060928;28;20294;-66
2023/12/21 04:42:55;;;;;;;0.20;0.20;;;;;;;15.10;79.08;99938.91;5033248;28;20099;-66
2023/12/21 04:45:22;;;;;;;0.30;0.30;;;;;;;14.47;80.10;99935.84;5071521;28;20564;-65
2023/12/21 04:47:47;;;;;;;0.30;0.30;;;;;;;15.23;78.26;99935.63;5071506;28;20032;-65
2023/12/21 04:50:13;;;;;;;0.20;0.20;;;;;;;15.13;78.60;99947.31;5071551;28;20421;-65
2023/12/21 04:52:38;;;;;;;0.40;0.40;;;;;;;15.02;77.70;99950.34;5071777;28;20040;-65
2023/12/21 04:55:04;;;;;;;0.15;0.15;;;;;;;14.86;78.04;99947.66;5071473;28;20499;-65
2023/12/21 04:57:30;;;;;;;0.25;0.25;;;;;;;14.08;82.17;99951.78;5071313;28;20036;-64
2023/12/21 04:59:55;;;;;;;0.10;0.10;;;;;;;14.44;80.09;99935.56;5052018;28;20047;-65
2023/12/21 05:02:20;;;;;;;0.25;0.25;;;;;;;15.05;77.03;99934.34;5068974;28;20491;-64
2023/12/21 05:04:46;;;;;;;0.20;0.20;;;;;;;14.84;77.30;99941.69;5071549;28;20482;-64
2023/12/21 05:07:11;;;;;;;0.10;0.10;;;;;;;14.12;80.76;99922.31;5064550;28;20041;-65
2023/12/21 05:09:37;;;;;;;0.30;0.30;;;;;;;15.04;76.78;99931.91;5070277;28;20043;-66
2023/12/21 05:12:03;;;;;;;0.20;0.20;;;;;;;15.17;74.62;99894.25;5070411;28;20098;-64
2023/12/21 05:14:28;;;;;;;0.20;0.20;;;;;;;14.62;78.11;99897.94;5070415;28;20293;-67
2023/12/21 05:16:53;;;;;;;0.30;0.30;;;;;;;15.00;76.92;99896.47;5070438;28;20049;-67
2023/12/21 05:19:19;;;;;;;0.40;0.40;;;;;;;15.40;74.66;99898.19;5052291;28;20469;-65
2023/12/21 05:21:44;;;;;;;0.20;0.20;;;;;;;15.16;75.96;99870.16;5070629;28;20091;-65
2023/12/21 05:24:09;;;;;;;0.20;0.20;;;;;;;15.14;75.61;99875.84;5070577;28;20120;-66
2023/12/21 05:26:35;;;;;;;0.30;0.30;;;;;;;14.77;77.25;99884.41;5070840;28;20041;-65
2023/12/21 05:29:02;;;;;;;0.20;0.20;;;;;;;15.11;75.82;99873.72;5070511;28;20061;-66
2023/12/21 05:31:28;;;;;;;0.30;0.30;;;;;;;14.83;76.11;99874.38;5071033;28;20509;-64
2023/12/21 05:33:53;;;;;;;0.30;0.30;;;;;;;14.58;76.88;99880.69;5070733;28;20040;-64
2023/12/21 05:36:20;;;;;;;0.30;0.30;;;;;;;15.61;73.61;99876.13;5051849;28;20071;-66
2023/12/21 05:38:46;;;;;;;0.30;0.30;;;;;;;15.49;73.92;99866.72;5070407;28;20064;-67
2023/12/21 05:41:11;;;;;;;0.20;0.20;;;;;;;15.41;73.79;99887.06;5070132;28;20166;-66
2023/12/21 05:43:37;;;;;;;0.20;0.20;;;;;;;15.21;75.44;99873.66;5071159;28;20024;-65
2023/12/21 05:46:04;;;;;;;0.30;0.30;;;;;;;15.55;74.07;99858.31;5070206;28;20067;-66
2023/12/21 05:48:31;;;;;;;0.30;0.30;;;;;;;14.60;78.17;99873.06;5070093;28;20033;-65
2023/12/21 05:50:56;;;;;;;0.32;0.32;;;;;;;15.56;74.97;99848.28;5069186;28;20500;-65
2023/12/21 05:53:21;;;;;;;0.20;0.20;;;;;;;15.46;76.46;99841.03;5070111;28;20032;-65
2023/12/21 05:55:47;;;;;;;0.45;0.45;;;;;;;15.29;75.24;99834.38;5070728;28;20108;-64
2023/12/21 05:58:12;;;;;;;0.30;0.30;;;;;;;15.14;78.40;99847.97;5069210;28;20111;-66
2023/12/21 06:00:37;;;;;;;0.20;0.20;;;;;;;14.79;79.32;99821.91;5055923;28;20043;-65
2023/12/21 06:03:03;;;;;;;0.25;0.25;;;;;;;14.86;78.71;99825.09;5053583;28;20109;-66
2023/12/21 06:05:29;;;;;;;0.40;0.40;;;;;;;15.31;77.18;99811.31;5078998;28;20080;-65
2023/12/21 06:07:54;;;;;;;0.28;0.28;;;;;;;15.00;78.82;99806.41;5079370;28;20389;-66
2023/12/21 06:10:20;;;;;;;0.20;0.20;;;;;;;15.06;78.87;99791.72;5074603;28;20042;-65
2023/12/21 06:12:45;;;;;;;0.30;0.30;;;;;;;15.47;76.78;99783.09;5069434;28;20047;-66
2023/12/21 06:15:10;;;;;;;0.22;0.22;;;;;;;15.12;78.46;99772.47;5069521;28;20206;-64
2023/12/21 06:17:36;;;;;;;0.30;0.30;;;;;;;14.98;79.37;99780.41;5068943;28;20036;-65
2023/12/21 06:20:02;;;;;;;0.20;0.20;;;;;;;15.18;78.63;99767.84;5069261;28;20060;-67
2023/12/21 06:22:27;;;;;;;0.20;0.20;;;;;;;15.29;76.52;99769.41;5069988;28;20116;-66
2023/12/21 06:24:53;;;;;;;0.30;0.30;;;;;;;14.51;80.12;99769.28;5069424;28;20457;-66
2023/12/21 06:27:18;;;;;;;0.20;0.20;;;;;;;15.16;77.27;99719.41;5069906;28;20171;-65
2023/12/21 06:29:43;;;;;;;0.30;0.30;;;;;;;14.34;81.96;99724.78;5075878;28;20127;-66
2023/12/21 06:32:09;;;;;;;0.20;0.20;;;;;;;14.23;81.87;99725.88;5076874;28;20053;-66
2023/12/21 06:34:34;;;;;;;0.30;0.30;;;;;;;15.07;79.46;99723.00;5075153;28;20388;-65
2023/12/21 06:37:00;;;;;;;0.30;0.30;;;;;;;14.75;79.48;99737.00;5056159;28;20028;-66
2023/12/21 06:39:26;;;;;;;0.13;0.13;;;;;;;14.37;81.29;99738.53;5069260;28;20044;-66
2023/12/21 06:41:51;;;;;;;0.10;0.10;;;;;;;14.88;78.41;99709.31;5069006;28;20040;-65
2023/12/21 06:44:16;;;;;;;0.28;0.28;;;;;;;14.78;78.26;99693.97;5057903;28;20045;-65
2023/12/21 06:46:42;;;;;;;0.38;0.38;;;;;;;14.67;80.29;99688.91;5049672;28;20056;-66
2023/12/21 06:49:11;;;;;;;0.20;0.20;;;;;;;14.18;80.75;99686.16;5049013;28;20048;-64
2023/12/21 06:51:37;;;;;;;0.20;0.20;;;;;;;15.11;77.92;99688.88;5059354;28;20036;-64
2023/12/21 06:54:03;;;;;;;0.20;0.20;;;;;;;14.75;78.29;99681.03;5078960;28;20043;-64
2023/12/21 06:56:29;;;;;;;0.30;0.30;;;;;;;14.92;78.43;99681.44;5077780;28;20392;-64
2023/12/21 06:58:54;;;;;;;0.20;0.20;;;;;;;14.45;81.41;99670.38;5077117;28;20483;-65
2023/12/21 07:01:25;;;;;;;0.30;0.30;;;;;;;15.22;78.96;99661.44;5079742;28;20059;-66
2023/12/21 07:03:50;;;;;;;0.20;0.20;;;;;;;14.25;81.76;99677.78;5076960;28;20036;-66
2023/12/21 07:06:15;;;;;;;0.20;0.20;;;;;;;14.31;83.16;99665.88;5079167;28;20081;-66
2023/12/21 07:08:41;;;;;;;0.20;0.20;;;;;;;14.44;82.46;99667.97;5085341;28;20043;-65
2023/12/21 07:11:07;;;;;;;0.30;0.30;;;;;;;14.70;81.81;99662.13;5088046;28;20483;-65
2023/12/21 07:13:33;;;;;;;0.20;0.20;;;;;;;15.07;78.89;99650.78;5077912;28;20043;-65
2023/12/21 07:15:58;;;;;;;0.30;0.30;;;;;;;14.43;83.34;99642.00;5074271;28;20452;-66
2023/12/21 07:18:24;;;;;;;0.30;0.30;;;;;;;14.39;83.06;99640.94;5068737;28;20442;-66
2023/12/21 07:20:49;;;;;;;0.20;0.20;;;;;;;14.91;81.45;99628.44;5070226;28;20059;-67
2023/12/21 07:23:14;;;;;;;0.20;0.20;;;;;;;14.57;82.47;99619.50;5066942;28;20488;-66
2023/12/21 07:25:41;;;;;;;0.30;0.30;;;;;;;14.27;84.28;99616.94;5089789;28;20050;-66
2023/12/21 07:28:06;;;;;;;0.20;0.20;;;;;;;14.50;84.67;99615.50;5088541;28;20040;-67
2023/12/21 07:30:32;;;;;;;0.30;0.30;;;;;;;14.16;84.34;99618.09;5055070;28;20051;-66
2023/12/21 07:32:57;;;;;;;0.22;0.22;;;;;;;14.14;85.39;99631.06;5074103;28;20115;-67
2023/12/21 07:35:23;;;;;;;0.30;0.30;;;;;;;14.66;83.25;99619.72;5074040;28;20190;-66
2023/12/21 07:37:48;;;;;;;0.20;0.20;;;;;;;13.99;87.79;99621.13;5074424;28;20039;-67
2023/12/21 07:40:14;;;;;;;0.30;0.30;;;;;;;14.42;84.02;99635.00;5073777;28;20037;-67
2023/12/21 07:42:39;;;;;;;0.40;0.40;;;;;;;14.08;84.90;99622.19;5073948;28;20496;-66
2023/12/21 07:45:05;;;;;;;0.20;0.20;;;;;;;14.19;85.67;99633.72;5073806;28;20029;-68
2023/12/21 07:47:31;;;;;;;0.20;0.20;;;;;;;14.52;84.47;99602.50;5073726;28;20040;-66
2023/12/21 07:49:56;;;;;;;0.20;0.20;;;;;;;14.10;85.49;99635.41;5073819;28;20095;-67
2023/12/21 07:52:21;;;;;;;0.30;0.30;;;;;;;14.17;85.19;99606.19;5073782;28;20029;-67
2023/12/21 07:54:47;;;;;;;0.40;0.40;;;;;;;14.83;83.19;99623.63;5073699;28;20545;-66
2023/12/21 07:57:12;;;;;;;0.30;0.30;;;;;;;14.55;82.63;99629.78;5073140;28;20041;-65
2023/12/21 07:59:38;;;;;;;0.20;0.20;;;;;;;14.72;83.55;99618.59;5072971;28;20162;-66
2023/12/21 08:02:03;;;;;;;0.20;0.20;;;;;;;14.05;85.69;99611.91;5073194;28;20028;-66
2023/12/21 08:04:29;;;;;;;0.10;0.10;;;;;;;14.64;84.28;99624.59;5074022;28;20032;-67
2023/12/21 08:06:54;;;;;;;0.10;0.10;;;;;;;14.89;83.06;99608.16;5073155;28;20106;-68
2023/12/21 08:09:19;;;;;;;0.20;0.20;;;;;;;14.32;85.60;99600.75;5073167;28;20120;-67
2023/12/21 08:11:45;;;;;;;0.30;0.30;;;;;;;14.42;85.72;99587.16;5073163;28;20043;-67
2023/12/21 08:14:10;;;;;;;0.20;0.20;;;;;;;14.79;85.26;99600.94;5073053;28;20024;-68
2023/12/21 08:16:36;;;;;;;0.28;0.28;;;;;;;14.49;84.90;99584.13;5066751;28;20056;-67
2023/12/21 08:19:02;;;;;;;0.20;0.20;;;;;;;14.48;84.85;99561.72;5054735;28;20090;-68
2023/12/21 08:21:27;;;;;;;0.20;0.20;;;;;;;14.59;84.07;99573.25;5073126;28;20041;-68
2023/12/21 08:23:52;;;;;;;0.45;0.45;;;;;;;14.81;83.58;99574.44;5072763;28;20044;-68
2023/12/21 08:26:18;;;;;;;0.38;0.38;;;;;;;14.81;82.71;99582.53;5055297;28;20446;-67
2023/12/21 08:28:43;;;;;;;0.20;0.20;;;;;;;14.84;84.60;99548.69;5053538;28;20055;-67
2023/12/21 08:31:09;;;;;;;0.20;0.20;;;;;;;14.79;84.84;99552.28;5052991;28;20041;-68
2023/12/21 08:33:35;;;;;;;0.30;0.30;;;;;;;14.94;84.04;99537.78;5053000;28;20056;-66
2023/12/21 08:36:02;;;;;;;0.40;0.40;;;;;;;15.04;83.00;99543.09;5057532;28;20037;-68
2023/12/21 08:38:27;;;;;;;0.30;0.30;;;;;;;15.14;82.12;99555.72;5072569;28;20055;-66
2023/12/21 08:40:53;;;;;;;0.30;0.30;;;;;;;15.36;81.38;99548.72;5072827;28;20040;-69
2023/12/21 08:43:18;;;;;;;0.30;0.30;;;;;;;14.91;82.41;99568.13;5072416;28;20044;-68
2023/12/21 08:45:43;;;;;;;0.30;0.30;;;;;;;15.07;83.23;99511.97;5071265;28;20040;-68
2023/12/21 08:48:09;;;;;;;0.32;0.32;;;;;;;14.60;84.32;99526.22;5071383;28;20035;-67
2023/12/21 08:50:34;;;;;;;0.20;0.20;;;;;;;15.40;81.38;99497.50;5071442;28;20029;-68
2023/12/21 08:53:00;;;;;;;0.40;0.40;;;;;;;15.10;83.02;99498.66;5071272;28;20109;-68
2023/12/21 08:55:29;;;;;;;0.28;0.28;;;;;;;15.37;81.02;99512.41;5071556;28;20036;-68
2023/12/21 08:57:58;;;;;;;0.20;0.20;;;;;;;15.32;83.58;99490.84;5071093;28;20033;-67
2023/12/21 09:00:24;;;;;;;0.30;0.30;;;;;;;15.19;82.95;99488.03;5053097;28;20033;-67
2023/12/21 09:02:50;;;;;;;0.20;0.20;;;;;;;15.33;81.97;99480.81;5071394;28;20036;-68
2023/12/21 09:05:15;;;;;;;0.35;0.35;;;;;;;15.01;84.25;99492.28;5070962;28;20565;-67
2023/12/21 09:07:40;;;;;;;0.38;0.38;;;;;;;15.67;80.22;99484.19;5066539;28;20502;-68
2023/12/21 09:10:07;;;;;;;0.20;0.20;;;;;;;14.67;84.96;99450.97;5051802;28;20403;-68
2023/12/21 09:12:32;;;;;;;0.30;0.30;;;;;;;15.32;81.13;99461.06;5070912;28;20033;-67
2023/12/21 09:14:58;;;;;;;0.28;0.28;;;;;;;15.39;80.40;99460.72;5070504;28;20637;-66
2023/12/21 09:17:24;;;;;;;0.20;0.20;;;;;;;14.92;83.58;99459.63;5030655;28;20575;-68
2023/12/21 09:19:49;;;;;;;0.32;0.32;;;;;;;15.29;81.32;99480.56;5031738;28;20059;-69
2023/12/21 09:22:14;;;;;;;0.40;0.40;;;;;;;15.64;80.16;99473.97;5045384;28;20037;-67
2023/12/21 09:24:40;;;;;;;0.30;0.30;;;;;;;15.10;82.40;99430.22;5050299;28;20059;-65
2023/12/21 09:27:05;;;;;;;0.43;0.43;;;;;;;15.63;81.80;99432.53;5050916;28;20037;-67
2023/12/21 09:29:31;;;;;;;0.30;0.30;;;;;;;16.04;77.97;99445.47;5032530;28;20050;-68
2023/12/21 09:31:57;;;;;;;0.20;0.20;;;;;;;15.49;80.07;99438.94;5050923;28;20067;-68
2023/12/21 09:34:22;;;;;;;0.20;0.20;;;;;;;15.31;81.28;99435.06;5051131;28;20031;-67
2023/12/21 09:36:48;;;;;;;0.20;0.20;;;;;;;15.37;81.12;99439.34;5050333;28;20083;-67
2023/12/21 09:39:13;;;;;;;0.30;0.30;;;;;;;15.60;81.14;99437.72;5050501;28;20160;-69
2023/12/21 09:41:39;;;;;;;0.20;0.20;;;;;;;15.49;80.56;99436.22;5050258;28;20044;-67
2023/12/21 09:44:05;;;;;;;0.35;0.35;;;;;;;15.51;80.64;99437.56;5050255;28;20039;-68
2023/12/21 09:46:38;;;;;;;0.20;0.20;;;;;;;15.76;80.02;99439.91;5050867;28;20041;-68
2023/12/21 09:49:06;;;;;;;0.20;0.20;;;;;;;15.72;80.46;99447.00;5049063;28;20041;-67
2023/12/21 09:51:32;;;;;;;0.20;0.20;;;;;;;15.78;79.56;99429.59;5049721;28;20480;-68
2023/12/21 09:54:01;;;;;;;0.30;0.30;;;;;;;15.93;79.21;99455.66;5048470;28;20139;-68
2023/12/21 09:56:27;;;;;;;0.20;0.20;;;;;;;15.48;80.03;99440.03;5070280;28;20723;-68
2023/12/21 09:58:54;;;;;;;0.40;0.40;;;;;;;15.63;79.66;99429.00;5062539;28;20071;-68
2023/12/21 10:01:20;;;;;;;0.30;0.30;;;;;;;16.19;77.73;99432.50;5050434;28;20179;-68
2023/12/21 10:03:46;;;;;;;0.30;0.30;;;;;;;16.00;78.13;99431.69;5050086;28;20053;-69
2023/12/21 10:06:12;;;;;;;0.30;0.30;;;;;;;15.94;78.96;99437.50;5049586;28;20053;-67
2023/12/21 10:08:39;;;;;;;0.20;0.20;;;;;;;16.06;77.85;99441.34;5049876;28;20557;-67
2023/12/21 10:11:06;;;;;;;0.32;0.32;;;;;;;15.87;79.91;99418.09;5049517;28;20408;-67
2023/12/21 10:13:33;;;;;;;0.30;0.30;;;;;;;15.69;80.87;99427.84;5032324;28;20019;-69
2023/12/21 10:15:59;;;;;;;0.10;0.10;;;;;;;16.26;77.16;99430.19;5044492;28;20067;-67
2023/12/21 10:18:26;;;;;;;0.20;0.20;;;;;;;16.11;77.52;99402.53;5069207;28;20048;-68
2023/12/21 10:20:51;;;;;;;0.30;0.30;;;;;;;16.39;76.13;99413.16;5069655;28;20407;-67
2023/12/21 10:23:19;;;;;;;0.20;0.20;;;;;;;15.75;80.19;99419.34;5069545;28;20032;-68
2023/12/21 10:25:46;;;;;;;0.32;0.32;;;;;;;15.38;81.46;99432.03;5070339;28;20055;-68
2023/12/21 10:28:11;;;;;;;0.20;0.20;;;;;;;15.58;80.82;99392.00;5069627;28;20028;-67
2023/12/21 10:30:37;;;;;;;0.20;0.20;;;;;;;16.19;77.79;99443.34;5051825;28;20059;-69
2023/12/21 10:33:03;;;;;;;0.20;0.20;;;;;;;16.18;78.83;99414.59;5069623;28;20444;-67
2023/12/21 10:35:28;;;;;;;0.20;0.20;;;;;;;15.48;80.90;99410.25;5069371;28;20040;-67
2023/12/21 10:37:54;;;;;;;0.35;0.35;;;;;;;15.76;79.58;99412.03;5051157;28;20566;-67
2023/12/21 10:40:22;;;;;;;0.28;0.28;;;;;;;16.72;77.63;99405.00;5069764;28;20028;-69
2023/12/21 10:42:48;;;;;;;0.10;0.10;;;;;;;15.98;78.46;99419.56;5069336;28;20044;-71
2023/12/21 10:45:21;;;;;;;0.32;0.32;;;;;;;15.73;80.41;99413.41;5069392;28;20066;-69
2023/12/21 10:47:52;;;;;;;0.30;0.30;;;;;;;16.23;78.66;99389.31;5050906;28;20417;-69
2023/12/21 10:50:18;;;;;;;0.30;0.30;;;;;;;16.35;77.33;99376.88;5069602;28;20025;-68
2023/12/21 10:52:47;;;;;;;0.20;0.20;;;;;;;16.26;78.17;99384.09;5070126;28;20040;-68
2023/12/21 10:55:17;;;;;;;0.20;0.20;;;;;;;16.55;75.99;99394.72;5069524;28;20440;-69
2023/12/21 10:57:45;;;;;;;0.25;0.25;;;;;;;15.77;79.43;99370.28;5069129;28;20036;-68
2023/12/21 11:00:15;;;;;;;0.30;0.30;;;;;;;16.19;77.83;99372.88;5069108;28;20551;-67
2023/12/21 11:02:45;;;;;;;0.20;0.20;;;;;;;16.58;76.97;99399.56;5069341;28;20032;-68
2023/12/21 11:05:22;;;;;;;0.30;0.30;;;;;;;16.64;76.55;99392.94;5068880;28;20067;-68
2023/12/21 11:07:51;;;;;;;0.30;0.30;;;;;;;16.08;76.25;99370.63;5069646;28;20024;-66
2023/12/21 11:10:17;;;;;;;0.25;0.25;;;;;;;16.02;79.67;99385.34;5068931;28;20090;-69
2023/12/21 11:12:43;;;;;;;0.30;0.30;;;;;;;16.04;78.38;99377.72;5069233;28;20063;-69
2023/12/21 11:15:11;;;;;;;0.25;0.25;;;;;;;15.78;79.81;99367.28;5067203;28;20075;-69
2023/12/21 11:17:38;;;;;;;0.17;0.17;;;;;;;16.11;78.55;99370.00;5049084;28;20041;-69
2023/12/21 11:20:05;;;;;;;0.20;0.20;;;;;;;16.41;76.79;99354.00;5049041;28;20036;-68
2023/12/21 11:22:36;;;;;;;0.25;0.25;;;;;;;15.95;76.34;99410.09;5049224;28;20037;-69
2023/12/21 11:25:03;;;;;;;0.25;0.25;;;;;;;15.54;79.54;99331.41;5046128;28;20475;-68